Latest Weather Observations for Coondewanna

IDW60801

Issued at 6:03 pm WST Saturday 23 May 2015 (issued every 30 minutes, with the page automatically refreshed every 10 minutes)

About weather observations | Map of weather stations | Latest weather observations for WA | Other Formats
Station Details ID: 505051 Name: COONDEWANNA Lat: -22.96 Lon: 118.81 Height: 697.63 m
Data from the previous 72 hours. | See also: Recent months for locations in Western Australia
Date/Time
WST
Temp
°C
App
Temp
°C
Dew
Point
Rel
Hum
%
Delta-T
°C
Wind Press
QNH
hPa
Press
MSL
hPa
Rain
since 9 am
mm
Dir
 
Spd
km/h
Gust
km/h
Spd
kts
Gust
kts
23/06:00pm 19.5 20.1 15.2 76 2.6 N 6 7 3 4 1018.5 1015.6 0.0
23/05:30pm 19.8 20.2 14.8 73 3.0 N 6 6 3 3 1018.4 1015.5 0.0
23/05:00pm 20.1 20.0 14.0 68 3.6 N 7 9 4 5 1018.1 1015.2 0.0
23/04:30pm 20.6 20.6 13.6 64 4.2 N 6 9 3 5 1018.1 1015.2 0.0
23/04:00pm 20.8 20.7 13.3 62 4.4 NNW 6 9 3 5 1017.8 1014.9 0.0
23/03:30pm 20.8 20.0 13.0 61 4.6 N 9 11 5 6 1017.8 1014.9 0.0
23/03:00pm 21.2 21.3 13.9 63 4.4 NNW 6 11 3 6 1017.9 1015.0 0.0
23/02:30pm 20.9 20.5 14.1 65 4.1 N 9 13 5 7 1018.0 1015.1 0.0
23/02:00pm 20.7 21.2 14.1 66 3.9 NNW 4 7 2 4 1018.0 1015.1 0.0
23/01:30pm 20.4 20.4 13.6 65 4.0 N 6 11 3 6 1018.1 1015.2 0.0
23/01:00pm 20.2 19.2 13.4 65 4.0 NNE 11 15 6 8 1018.5 1015.6 0.0
23/12:30pm 20.0 19.2 13.0 64 4.1 N 9 13 5 7 1019.0 1016.1 0.0
23/12:00pm 19.8 18.8 12.3 62 4.3 N 9 15 5 8 1019.4 1016.5 0.0
23/11:30am 19.5 18.6 12.7 65 4.0 NE 9 13 5 7 1019.6 1016.8 0.0
23/11:00am 19.4 18.0 13.3 68 3.6 NE 13 15 7 8 1019.8 1016.9 0.0
23/10:30am 18.7 18.6 13.8 73 2.9 NE 7 11 4 6 1020.6 1017.7 0.0
23/10:00am 18.0 18.2 14.3 79 2.2 ENE 6 9 3 5 1020.6 1017.7 0.0
23/09:30am 17.5 17.8 15.1 86 1.4 ENE 7 9 4 5 1021.1 1018.3 0.0
23/09:00am 17.5 18.1 14.2 81 1.9 ENE 4 7 2 4 1021.0 1018.2 10.4
23/08:30am 16.9 17.6 14.5 86 1.4 ENE 4 9 2 5 1020.7 1017.8 10.4
23/08:00am 16.5 16.8 14.5 88 1.2 ENE 6 7 3 4 1020.7 1017.8 10.4
23/07:30am 16.3 16.0 14.5 89 1.1 ENE 9 11 5 6 1020.5 1017.6 10.4
23/07:00am 16.2 16.5 14.9 92 0.8 ENE 7 7 4 4 1020.4 1017.5 10.4
23/06:30am 15.9 16.1 14.8 93 0.7 ENE 7 9 4 5 1020.3 1017.4 10.4
23/06:00am 16.1 15.9 14.8 92 0.8 ENE 9 11 5 6 1020.2 1017.3 10.4
23/05:30am 16.2 17.0 14.9 92 0.8 ENE 4 7 2 4 1020.2 1017.3 10.4
23/05:00am 16.4 16.7 15.1 92 0.8 ENE 7 9 4 5 1019.9 1017.0 10.2
23/04:30am 16.4 16.8 15.3 93 0.7 ENE 7 9 4 5 1019.5 1016.7 10.2
23/04:00am 16.4 16.7 15.1 92 0.8 ENE 7 13 4 7 1019.8 1016.9 9.8
23/03:30am 16.4 17.3 15.1 92 0.8 ENE 4 6 2 3 1020.0 1017.1 9.0
23/03:00am 16.5 18.3 15.4 93 0.7 CALM 0 0 0 0 1019.6 1016.8 9.0
23/02:30am 16.4 18.1 15.3 93 0.7 CALM 0 0 0 0 1020.0 1017.1 9.0
23/02:00am 16.4 18.2 15.4 94 0.6 CALM 0 0 0 0 1020.1 1017.2 9.0
23/01:30am 16.4 18.1 15.1 92 0.8 CALM 0 6 0 3 1019.9 1017.0 9.0
23/01:00am 16.4 17.8 15.3 93 0.7 ENE 2 6 1 3 1020.0 1017.1 9.0
23/12:30am 16.4 17.0 15.4 94 0.6 ENE 6 7 3 4 1020.0 1017.1 9.0
23/12:00am 16.5 17.5 15.4 93 0.7 ENE 4 6 2 3 1020.2 1017.3 9.0
 
Date/Time
WST
Temp
°C
App
Temp
°C
Dew
Point
Rel
Hum
%
Delta-T
°C
Wind Press
QNH
hPa
Press
MSL
hPa
Rain
since 9 am
mm
Dir
 
Spd
km/h
Gust
km/h
Spd
kts
Gust
kts
22/11:30pm 16.5 17.9 15.4 93 0.7 ENE 2 6 1 3 1020.4 1017.5 8.8
22/11:00pm 16.4 16.4 15.3 93 0.7 ENE 9 13 5 7 1020.7 1017.8 8.6
22/10:35pm 16.4 15.7 15.3 93 0.7 ENE 13 15 7 8 1020.6 1017.7 8.4
22/10:30pm 16.4 15.7 15.4 94 0.6 ENE 13 17 7 9 1020.6 1017.7 8.4
22/10:00pm 16.6 17.3 15.5 93 0.7 N 6 9 3 5 1021.0 1018.2 4.4
22/09:55pm 16.6 17.1 15.5 93 0.7 N 7 9 4 5 1021.3 1018.4 3.4
22/09:30pm 17.2 17.4 14.8 86 1.4 NNE 7 11 4 6 1021.3 1018.4 0.4
22/09:00pm 17.4 17.9 15.0 86 1.4 NNE 6 7 3 4 1020.9 1018.1 0.0
22/08:30pm 18.1 17.5 14.6 80 2.1 NNE 11 15 6 8 1020.6 1017.7 0.0
22/08:00pm 18.5 18.3 14.8 79 2.2 NNE 9 13 5 7 1020.5 1017.6 0.0
22/07:30pm 18.8 18.6 14.7 77 2.5 NNE 9 11 5 6 1020.4 1017.5 0.0
22/07:00pm 18.9 17.9 14.6 76 2.6 NE 13 20 7 11 1020.1 1017.2 0.0
22/06:30pm 18.8 18.2 14.7 77 2.5 NE 11 15 6 8 1020.0 1017.1 0.0
22/06:00pm 19.0 17.2 14.5 75 2.7 NE 17 22 9 12 1019.6 1016.8 0.0
22/05:30pm 19.3 17.9 14.6 74 2.8 ENE 15 19 8 10 1019.4 1016.5 0.0
22/05:00pm 19.8 18.2 14.0 69 3.4 NNE 15 22 8 12 1019.6 1016.8 0.0
22/04:30pm 20.1 18.2 14.2 69 3.5 NE 17 26 9 14 1019.5 1016.7 0.0
22/04:00pm 20.9 19.8 14.3 66 4.0 NE 13 19 7 10 1019.3 1016.4 0.0
22/03:30pm 20.4 18.0 13.8 66 3.9 NE 19 26 10 14 1019.1 1016.2 0.0
22/03:00pm 21.1 18.5 13.3 61 4.6 NE 19 28 10 15 1019.5 1016.7 0.0
22/02:30pm 21.5 18.9 13.7 61 4.7 NE 20 30 11 16 1019.3 1016.4 0.0
22/02:00pm 21.5 19.1 12.6 57 5.2 NE 17 32 9 17 1019.4 1016.5 0.0
22/01:30pm 20.0 18.3 13.7 67 3.7 NE 15 22 8 12 1020.0 1017.1 0.0
22/01:00pm 19.9 18.7 14.0 69 3.5 ENE 13 19 7 10 1020.5 1017.6 0.0
22/12:30pm 19.7 17.9 14.5 72 3.1 NE 17 22 9 12 1020.9 1018.1 0.0
22/12:00pm 19.7 17.4 14.1 70 3.3 NE 19 28 10 15 1021.3 1018.4 0.0
22/11:30am 19.4 18.4 14.6 74 2.9 ENE 13 20 7 11 1022.0 1019.1 0.0
22/11:00am 19.0 17.7 14.9 77 2.5 NE 15 20 8 11 1021.8 1018.9 0.0
22/10:30am 18.6 17.9 15.3 81 2.0 E 13 17 7 9 1022.1 1019.3 0.0
22/10:00am 18.7 17.6 15.4 81 2.0 ENE 15 22 8 12 1022.3 1019.5 0.0
22/09:30am 17.0 16.9 15.0 88 1.2 ESE 9 13 5 7 1022.6 1019.8 0.0
22/09:00am 15.9 17.3 14.4 91 0.9 CALM 0 0 0 0 1023.1 1020.2 17.8
22/08:59am 15.8 17.2 14.3 91 0.9 CALM 0 0 0 0 1023.1 1020.2 17.8
22/08:32am 15.5 15.6 14.5 94 0.6 WSW 7 9 4 5 1023.0 1020.1 17.8
22/08:30am 15.4 15.5 14.4 94 0.6 SW 7 9 4 5 1023.1 1020.2 17.8
22/08:00am 15.2 15.8 14.2 94 0.6 SSW 4 7 2 4 1022.3 1019.5 17.8
22/07:30am 14.9 16.2 14.1 95 0.5 CALM 0 0 0 0 1021.9 1019.0 17.6
22/07:00am 14.3 14.7 13.7 96 0.3 SSW 4 6 2 3 1021.3 1018.4 17.6
22/06:30am 14.4 15.5 13.6 95 0.5 CALM 0 0 0 0 1021.3 1018.4 17.6
22/06:00am 14.6 15.0 13.8 95 0.5 SSW 4 6 2 3 1021.3 1018.4 17.6
22/05:30am 14.3 14.7 13.7 96 0.3 SSW 4 9 2 5 1021.4 1018.5 17.6
22/05:06am 14.2 14.2 13.6 96 0.3 SSW 6 11 3 6 1021.5 1018.6 17.2
22/05:00am 14.2 13.3 13.6 96 0.3 SSW 11 20 6 11 1021.4 1018.5 17.0
22/04:42am 14.2 13.6 13.6 96 0.3 N 9 11 5 6 1021.8 1018.9 15.0
22/04:34am 14.3 14.3 13.5 95 0.5 N 6 9 3 5 1021.7 1018.8 14.0
22/04:30am 14.3 14.3 13.5 95 0.5 N 6 7 3 4 1021.7 1018.8 13.8
22/04:19am 14.3 14.3 13.5 95 0.5 N 6 7 3 4 1021.4 1018.5 13.2
22/04:18am 14.3 14.3 13.5 95 0.5 N 6 7 3 4 1021.4 1018.5 13.2
22/04:04am 14.4 15.5 13.6 95 0.5 CALM 0 0 0 0 1021.5 1018.6 12.0
22/04:00am 14.5 15.7 13.7 95 0.5 CALM 0 0 0 0 1021.5 1018.6 11.4
22/03:30am 14.6 15.6 13.3 92 0.7 CALM 0 0 0 0 1021.1 1018.3 10.4
22/03:00am 14.5 14.4 13.4 93 0.6 NE 6 9 3 5 1021.3 1018.4 10.4
22/02:59am 14.5 14.8 13.4 93 0.6 NNE 4 9 2 5 1021.3 1018.4 10.4
22/02:30am 14.5 14.3 13.5 94 0.6 N 7 11 4 6 1021.5 1018.6 10.4
22/02:00am 14.6 14.9 13.3 92 0.7 NE 4 9 2 5 1021.1 1018.3 10.4
22/01:30am 14.5 15.6 13.4 93 0.6 CALM 0 0 0 0 1021.4 1018.5 10.4
22/01:00am 14.5 15.6 13.4 93 0.6 CALM 0 0 0 0 1021.5 1018.6 10.4
22/12:30am 14.4 14.7 13.4 94 0.6 NE 4 7 2 4 1021.7 1018.8 10.4
22/12:27am 14.5 15.2 13.5 94 0.6 NE 2 7 1 4 1021.6 1018.7 10.4
22/12:00am 14.6 14.6 13.5 93 0.6 NE 6 7 3 4 1021.4 1018.5 10.4
 
Date/Time
WST
Temp
°C
App
Temp
°C
Dew
Point
Rel
Hum
%
Delta-T
°C
Wind Press
QNH
hPa
Press
MSL
hPa
Rain
since 9 am
mm
Dir
 
Spd
km/h
Gust
km/h
Spd
kts
Gust
kts
21/11:30pm 14.8 14.8 13.5 92 0.7 NE 6 11 3 6 1021.5 1018.6 10.4
21/11:00pm 14.5 15.6 13.4 93 0.6 CALM 0 0 0 0 1021.8 1018.9 10.4
21/10:30pm 14.7 14.9 12.9 89 1.0 NE 4 6 2 3 1021.9 1019.0 10.4
21/10:00pm 14.6 15.3 13.3 92 0.7 NE 2 9 1 5 1022.0 1019.1 10.4
21/09:30pm 14.5 14.4 13.4 93 0.6 NE 6 7 3 4 1022.4 1019.6 10.4
21/09:15pm 14.5 13.9 13.5 94 0.6 NE 9 13 5 7 1022.5 1019.7 10.4
21/09:03pm 14.3 14.0 13.3 94 0.6 NNE 7 11 4 6 1022.4 1019.6 10.4
21/09:00pm 14.4 14.1 13.4 94 0.6 N 7 11 4 6 1022.5 1019.7 10.2
21/08:30pm 14.3 13.7 13.5 95 0.5 NNE 9 13 5 7 1022.9 1020.0 8.0
21/08:03pm 14.3 14.6 13.3 94 0.6 N 4 9 2 5 1022.7 1019.9 6.4
21/08:00pm 14.3 14.5 13.2 93 0.6 N 4 7 2 4 1022.5 1019.7 6.2
21/07:31pm 14.4 13.9 12.8 90 0.9 N 7 9 4 5 1022.6 1019.8 2.6
21/07:30pm 14.5 14.1 12.9 90 0.9 N 7 9 4 5 1022.6 1019.8 2.4
21/07:00pm 14.6 13.7 12.5 87 1.2 NE 9 13 5 7 1021.7 1018.8 1.2
21/06:30pm 14.7 13.8 12.6 87 1.2 NE 9 17 5 9 1021.9 1019.0 1.2
21/06:00pm 14.3 12.1 12.2 87 1.2 NNE 15 24 8 13 1021.8 1018.9 1.0
21/05:30pm 15.4 12.3 11.6 78 2.1 N 19 26 10 14 1021.3 1018.4 0.4
21/05:00pm 17.1 14.7 10.0 63 3.9 NNE 13 20 7 11 1020.9 1018.1 0.0
21/04:30pm 17.4 14.2 10.1 62 4.0 NNE 17 24 9 13 1020.6 1017.7 0.0
21/04:00pm 18.4 14.7 10.0 58 4.6 N 20 30 11 16 1020.4 1017.5 0.0
21/03:30pm 21.0 16.2 7.3 41 7.3 NE 22 28 12 15 1020.1 1017.2 0.0
21/03:00pm 22.1 17.5 6.7 37 8.1 NE 20 30 11 16 1019.9 1017.0 0.0
21/02:30pm 22.4 17.4 6.6 36 8.4 NE 22 32 12 17 1020.1 1017.2 0.0
21/02:00pm 21.7 17.4 6.8 38 7.9 NE 19 30 10 16 1020.3 1017.4 0.0
21/01:30pm 22.0 16.7 6.7 37 8.1 NE 24 32 13 17 1020.6 1017.7 0.0
21/01:00pm 21.5 17.1 7.3 40 7.5 NE 20 30 11 16 1020.9 1018.1 0.0
21/12:30pm 20.4 15.5 6.7 41 7.2 NE 22 30 12 16 1021.4 1018.5 0.0
21/12:00pm 20.9 16.4 6.8 40 7.4 NE 20 28 11 15 1022.0 1019.1 0.0
21/11:30am 20.2 14.4 6.2 40 7.3 ENE 26 35 14 19 1022.5 1019.7 0.0
21/11:00am 19.4 14.0 6.2 42 6.8 ENE 24 33 13 18 1022.9 1020.0 0.0
21/10:30am 19.0 13.2 6.1 43 6.6 ENE 26 33 14 18 1023.3 1020.4 0.0
21/10:00am 18.5 12.7 6.4 45 6.2 E 26 35 14 19 1023.4 1020.6 0.0
21/09:30am 17.8 12.9 6.7 48 5.7 E 22 30 12 16 1023.6 1020.8 0.0
21/09:00am 17.0 12.7 6.8 51 5.2 E 19 32 10 17 1023.6 1020.8 0.0
21/08:30am 16.1 11.8 7.1 55 4.6 E 19 24 10 13 1023.2 1020.3 0.0
21/08:00am 15.8 10.9 6.8 55 4.6 E 22 32 12 17 1022.7 1019.9 0.0
21/07:30am 15.6 11.1 7.1 57 4.4 E 20 28 11 15 1022.6 1019.8 0.0
21/07:00am 15.0 11.1 7.1 59 4.0 E 17 28 9 15 1022.4 1019.6 0.0
21/06:30am 14.7 10.3 7.3 61 3.8 ENE 20 28 11 15 1021.7 1018.8 0.0
21/06:00am 14.7 10.3 7.3 61 3.8 ENE 20 28 11 15 1021.4 1018.5 0.0
21/05:30am 14.8 10.4 7.4 61 3.8 ENE 20 26 11 14 1020.8 1018.0 0.0
21/05:00am 15.2 10.8 7.2 59 4.1 ENE 20 28 11 15 1020.7 1017.8 0.0
21/04:30am 15.5 11.3 7.5 59 4.1 ENE 19 32 10 17 1020.6 1017.7 0.0
21/04:00am 15.5 12.4 7.3 58 4.2 ENE 13 19 7 10 1020.8 1018.0 0.0
21/03:30am 15.7 12.2 7.2 57 4.4 ENE 15 20 8 11 1020.7 1017.8 0.0
21/03:00am 15.7 12.2 7.2 57 4.4 ENE 15 20 8 11 1020.7 1017.8 0.0
21/02:30am 15.9 12.8 7.4 57 4.4 ENE 13 20 7 11 1020.7 1017.8 0.0
21/02:00am 15.4 13.7 7.7 60 4.0 NNE 6 11 3 6 1021.1 1018.3 0.0
21/01:30am 15.9 13.6 7.4 57 4.4 NE 9 17 5 9 1021.3 1018.4 0.0
21/01:00am 15.9 14.0 7.4 57 4.4 ENE 7 9 4 5 1021.4 1018.5 0.0
21/12:30am 16.0 14.3 7.5 57 4.4 ESE 6 11 3 6 1021.4 1018.5 0.0
21/12:00am 16.2 14.3 7.4 56 4.5 E 7 9 4 5 1021.5 1018.6 0.0
 
Date/Time
WST
Temp
°C
App
Temp
°C
Dew
Point
Rel
Hum
%
Delta-T
°C
Wind Press
QNH
hPa
Press
MSL
hPa
Rain
since 9 am
mm
Dir
 
Spd
km/h
Gust
km/h
Spd
kts
Gust
kts
20/11:30pm 16.6 13.5 7.3 54 4.8 E 13 19 7 10 1021.7 1018.8 0.0
20/11:00pm 17.2 13.4 7.5 53 5.0 E 17 20 9 11 1021.9 1019.0 0.0
20/10:30pm 17.1 15.2 7.5 53 5.0 E 7 11 4 6 1022.1 1019.3 0.0
20/10:00pm 17.2 14.9 7.5 53 5.0 E 9 13 5 7 1021.9 1019.0 0.0
20/09:30pm 16.8 15.0 8.0 56 4.6 ENE 7 11 4 6 1021.9 1019.0 0.0
20/09:00pm 16.9 15.3 8.1 56 4.6 E 6 9 3 5 1022.3 1019.5 0.0
20/08:30pm 18.0 15.1 8.3 53 5.2 E 13 17 7 9 1022.0 1019.1 0.0
20/08:00pm 17.8 16.3 9.2 57 4.6 E 7 9 4 5 1021.9 1019.0 0.0
20/07:30pm 18.1 16.9 9.5 57 4.7 E 6 7 3 4 1021.8 1018.9 0.0
20/07:00pm 18.7 17.4 9.8 56 4.9 E 7 9 4 5 1021.4 1018.5 0.0
20/06:30pm 19.6 18.4 9.5 52 5.5 E 6 7 3 4 1021.0 1018.2 0.0

Other Formats:

Comma delimited format used in spreadsheet applications
http://www.bom.gov.au/fwo/IDW60801/IDW60801.99312.axf

JavaScript Object Notation format (JSON) in row-major order
http://www.bom.gov.au/fwo/IDW60801/IDW60801.99312.json